Time;durP1;ratioP1;P1;durP2;ratioP2;P2;SDS_P1;SDS_P2;PMS_P1;PMS_P2;Temp;Humidity;BMP_temperature;BMP_pressure;BME280_temperature;BME280_humidity;BME280_pressure;Samples;Min_cycle;Max_cycle;Signal;HPM_P1;HPM_P2
2021/06/10 00:00:12;;;;;;;7.53;6.80;;;19.20;99.90;;;;;;5036647;28;20441;-96
2021/06/10 00:02:39;;;;;;;7.70;7.00;;;19.20;99.90;;;;;;5019821;28;20442;-96
2021/06/10 00:05:06;;;;;;;6.93;6.33;;;19.20;99.90;;;;;;5029121;28;20489;-91
2021/06/10 00:07:32;;;;;;;6.23;5.67;;;19.10;99.90;;;;;;5028302;28;20474;-92
2021/06/10 00:09:58;;;;;;;5.50;5.10;;;19.10;99.90;;;;;;5031137;28;20469;-91
2021/06/10 00:12:24;;;;;;;6.27;5.80;;;19.10;99.90;;;;;;5025348;28;20478;-89
2021/06/10 00:14:52;;;;;;;11.93;7.53;;;19.00;99.90;;;;;;5018502;28;20450;-88
2021/06/10 00:17:18;;;;;;;6.00;5.43;;;19.00;99.90;;;;;;5021760;28;20484;-88
2021/06/10 00:19:44;;;;;;;6.27;5.80;;;19.00;99.90;;;;;;5019034;28;20512;-88
2021/06/10 00:22:11;;;;;;;6.90;6.30;;;18.90;99.90;;;;;;5018301;28;20453;-88
2021/06/10 00:24:37;;;;;;;6.03;5.60;;;18.90;99.90;;;;;;5027124;28;20489;-88
2021/06/10 00:27:04;;;;;;;5.70;5.30;;;18.90;99.90;;;;;;5020459;28;20546;-88
2021/06/10 00:29:30;;;;;;;5.87;5.47;;;18.80;99.90;;;;;;5008977;28;20554;-88
2021/06/10 00:31:57;;;;;;;6.67;6.07;;;18.80;99.90;;;;;;5006553;28;20485;-88
2021/06/10 00:34:23;;;;;;;6.03;5.63;;;18.70;99.90;;;;;;5017920;28;20457;-88
2021/06/10 00:36:50;;;;;;;7.13;6.43;;;18.70;99.90;;;;;;5017749;28;20946;-93
2021/06/10 00:39:16;;;;;;;6.10;5.70;;;18.70;99.90;;;;;;5020917;28;20481;-86
2021/06/10 00:41:42;;;;;;;7.80;5.97;;;18.60;99.90;;;;;;5018704;28;20481;-86
2021/06/10 00:44:09;;;;;;;7.83;7.17;;;18.60;99.90;;;;;;5017705;28;20491;-86
2021/06/10 00:46:35;;;;;;;7.40;6.80;;;18.60;99.90;;;;;;5017684;28;20461;-86
2021/06/10 00:49:03;;;;;;;7.97;7.23;;;18.50;99.90;;;;;;5018344;28;20935;-87
2021/06/10 00:51:29;;;;;;;8.10;7.50;;;18.50;99.90;;;;;;5019971;28;20473;-87
2021/06/10 00:53:56;;;;;;;8.37;6.60;;;18.40;99.90;;;;;;5017634;28;20453;-86
2021/06/10 00:56:23;;;;;;;7.40;6.80;;;18.30;99.90;;;;;;5017688;28;20458;-86
2021/06/10 00:58:49;;;;;;;7.63;6.90;;;18.30;99.90;;;;;;5017716;28;20482;-87
2021/06/10 01:01:15;;;;;;;7.87;7.17;;;18.30;99.90;;;;;;5021678;28;20489;-87
2021/06/10 01:03:41;;;;;;;7.47;6.87;;;18.30;99.90;;;;;;5027764;28;20470;-86
2021/06/10 01:06:20;;;;;;;7.30;6.33;;;18.20;99.90;;;;;;5021427;28;20871;-84
2021/06/10 01:08:55;;;;;;;7.33;6.67;;;18.20;99.90;;;;;;5028495;28;21025;-84
2021/06/10 01:11:32;;;;;;;7.53;6.83;;;18.30;99.90;;;;;;5017414;28;20455;-84
2021/06/10 01:14:05;;;;;;;7.00;6.40;;;18.30;99.90;;;;;;5024746;28;20444;-85
2021/06/10 01:16:37;;;;;;;7.40;6.80;;;18.30;99.90;;;;;;5026825;28;21019;-86
2021/06/10 01:19:10;;;;;;;7.03;6.53;;;18.20;99.90;;;;;;5032095;28;20472;-83
2021/06/10 01:21:38;;;;;;;6.63;6.03;;;18.10;99.90;;;;;;5019262;28;20812;-84
2021/06/10 01:24:26;;;;;;;7.63;7.03;;;18.10;99.90;;;;;;5023589;28;20450;-83
2021/06/10 01:26:58;;;;;;;7.10;6.17;;;18.10;99.90;;;;;;5029184;28;20481;-83
2021/06/10 01:29:27;;;;;;;15.33;7.30;;;18.00;99.90;;;;;;4997700;28;20561;-83
2021/06/10 01:31:54;;;;;;;6.37;5.90;;;18.00;99.90;;;;;;5017195;28;20500;-83
2021/06/10 01:34:20;;;;;;;7.20;6.50;;;18.00;99.90;;;;;;5026406;28;20485;-84
2021/06/10 01:36:48;;;;;;;7.10;6.60;;;18.00;99.90;;;;;;5023284;28;20458;-83
2021/06/10 01:39:19;;;;;;;7.07;6.37;;;18.00;99.90;;;;;;5018543;28;20485;-83
2021/06/10 01:41:46;;;;;;;7.00;6.30;;;18.00;99.90;;;;;;5029568;28;20488;-83
2021/06/10 01:44:13;;;;;;;7.50;6.80;;;17.90;99.90;;;;;;5018669;28;20473;-83
2021/06/10 01:46:41;;;;;;;7.20;6.70;;;17.90;99.90;;;;;;5023475;28;20450;-83
2021/06/10 01:49:11;;;;;;;7.70;7.00;;;17.90;99.90;;;;;;5026046;28;20515;-83
2021/06/10 01:51:38;;;;;;;8.63;7.43;;;17.90;99.90;;;;;;5016220;28;20421;-83
2021/06/10 01:54:07;;;;;;;7.97;6.97;;;17.90;99.90;;;;;;5016405;28;20554;-83
2021/06/10 01:56:34;;;;;;;10.87;7.50;;;17.80;99.90;;;;;;5021111;28;20947;-83
2021/06/10 01:59:02;;;;;;;8.10;7.40;;;17.90;99.90;;;;;;5020539;28;20907;-83
2021/06/10 02:01:29;;;;;;;8.80;8.10;;;17.80;99.90;;;;;;5020102;28;20446;-83
2021/06/10 02:03:58;;;;;;;9.67;8.60;;;17.90;99.90;;;;;;5021188;28;20983;-83
2021/06/10 02:06:26;;;;;;;7.83;7.10;;;17.90;99.90;;;;;;5020042;28;20861;-83
2021/06/10 02:08:53;;;;;;;8.47;7.57;;;17.90;99.90;;;;;;5021141;28;20510;-82
2021/06/10 02:11:20;;;;;;;8.20;7.43;;;17.90;99.90;;;;;;5022615;28;20932;-81
2021/06/10 02:13:49;;;;;;;7.10;6.50;;;18.00;99.90;;;;;;5012908;28;20462;-82
2021/06/10 02:16:16;;;;;;;7.50;6.80;;;18.10;99.90;;;;;;5018656;28;20869;-81
2021/06/10 02:18:46;;;;;;;8.07;7.37;;;18.10;99.90;;;;;;5022649;28;20425;-81
2021/06/10 02:21:15;;;;;;;8.43;7.57;;;18.20;99.90;;;;;;5026361;28;20974;-82
2021/06/10 02:23:42;;;;;;;8.50;7.70;;;18.20;99.90;;;;;;5030897;28;20468;-81
2021/06/10 02:26:09;;;;;;;6.07;5.67;;;18.30;99.90;;;;;;5012581;28;20961;-84
2021/06/10 02:28:36;;;;;;;6.77;6.27;;;18.30;99.90;;;;;;5012635;28;20477;-84
2021/06/10 02:31:05;;;;;;;6.53;5.93;;;18.40;99.90;;;;;;5032426;28;20453;-84
2021/06/10 02:33:32;;;;;;;5.80;5.33;;;18.40;99.90;;;;;;5032978;28;20460;-90
2021/06/10 02:35:58;;;;;;;7.00;6.30;;;18.40;99.90;;;;;;5000624;28;20473;-87
2021/06/10 02:38:28;;;;;;;6.80;6.13;;;18.50;99.90;;;;;;5025584;28;20458;-86
2021/06/10 02:40:56;;;;;;;6.63;5.90;;;18.50;99.90;;;;;;5024334;28;20457;-88
2021/06/10 02:43:22;;;;;;;5.17;4.87;;;18.50;99.90;;;;;;5017623;28;20486;-89
2021/06/10 02:45:50;;;;;;;5.93;5.50;;;18.50;99.90;;;;;;5015243;28;20482;-91
2021/06/10 02:48:17;;;;;;;5.60;5.20;;;18.50;99.90;;;;;;5025991;28;20509;-87
2021/06/10 02:50:47;;;;;;;5.60;5.20;;;18.50;99.90;;;;;;5024200;28;20476;-86
2021/06/10 02:53:15;;;;;;;7.00;5.63;;;18.60;99.90;;;;;;5021982;28;20933;-86
2021/06/10 02:55:44;;;;;;;5.37;4.97;;;18.60;99.90;;;;;;5032714;28;20445;-86
2021/06/10 02:58:13;;;;;;;5.70;5.20;;;18.70;99.90;;;;;;5021474;28;20804;-86
2021/06/10 03:00:39;;;;;;;5.53;5.13;;;18.70;99.90;;;;;;5026919;28;20568;-87
2021/06/10 03:03:10;;;;;;;6.30;5.80;;;18.80;99.90;;;;;;5021761;28;20512;-88
2021/06/10 03:05:36;;;;;;;6.17;5.77;;;18.80;99.90;;;;;;5019734;28;20486;-89
2021/06/10 03:08:02;;;;;;;5.80;5.30;;;18.90;99.90;;;;;;5031901;28;20555;-86
2021/06/10 03:10:32;;;;;;;6.03;5.43;;;18.90;99.90;;;;;;5024154;28;20480;-89
2021/06/10 03:13:00;;;;;;;5.97;5.20;;;19.00;99.90;;;;;;5029661;28;20782;-83
2021/06/10 03:15:28;;;;;;;4.60;4.30;;;19.10;99.90;;;;;;5019777;28;20474;-81
2021/06/10 03:17:55;;;;;;;5.50;5.10;;;19.20;99.90;;;;;;5032343;28;20540;-89
2021/06/10 03:20:25;;;;;;;6.23;5.60;;;19.20;99.90;;;;;;5016218;28;20540;-83
2021/06/10 03:22:51;;;;;;;4.87;4.47;;;19.30;99.90;;;;;;5026454;28;20514;-82
2021/06/10 03:25:19;;;;;;;4.60;4.20;;;19.30;99.90;;;;;;5020933;28;20485;-83
2021/06/10 03:27:46;;;;;;;5.03;4.50;;;19.40;99.90;;;;;;5031520;28;20501;-83
2021/06/10 03:30:15;;;;;;;5.40;4.60;;;19.40;99.90;;;;;;5034304;28;20984;-83
2021/06/10 03:32:42;;;;;;;4.73;4.40;;;19.50;99.90;;;;;;5025765;28;20457;-82
2021/06/10 03:35:09;;;;;;;5.10;4.73;;;19.60;99.90;;;;;;5028603;28;20613;-83
2021/06/10 03:37:38;;;;;;;4.93;4.53;;;19.60;99.90;;;;;;5018647;28;20446;-82
2021/06/10 03:40:06;;;;;;;5.20;4.80;;;19.70;99.90;;;;;;5030634;28;20450;-83
2021/06/10 03:42:33;;;;;;;6.90;5.33;;;19.80;99.90;;;;;;5023526;28;20485;-83
2021/06/10 03:44:59;;;;;;;10.67;5.00;;;19.90;99.90;;;;;;5022895;28;20949;-83
2021/06/10 03:47:28;;;;;;;5.90;5.50;;;19.80;99.90;;;;;;5030788;28;20446;-84
2021/06/10 03:49:54;;;;;;;5.67;5.17;;;19.90;99.90;;;;;;5018358;28;20489;-85
2021/06/10 03:52:23;;;;;;;5.10;4.80;;;19.80;99.90;;;;;;5034969;28;20484;-84
2021/06/10 03:54:49;;;;;;;7.80;5.80;;;19.70;99.90;;;;;;5024122;28;20481;-85
2021/06/10 03:57:15;;;;;;;6.60;6.00;;;19.60;99.90;;;;;;5028988;28;20453;-84
2021/06/10 03:59:41;;;;;;;6.30;5.70;;;19.50;99.90;;;;;;5018107;28;20964;-85
2021/06/10 04:02:07;;;;;;;7.17;5.47;;;19.50;99.90;;;;;;5020517;28;20482;-84
2021/06/10 04:04:34;;;;;;;8.93;5.47;;;19.40;99.90;;;;;;5023542;28;20502;-84
2021/06/10 04:07:00;;;;;;;6.90;5.73;;;19.40;99.90;;;;;;5026955;28;20475;-84
2021/06/10 04:09:26;;;;;;;6.57;5.97;;;19.40;99.90;;;;;;5018728;28;20513;-85
2021/06/10 04:11:53;;;;;;;6.57;5.90;;;19.40;99.90;;;;;;5027549;28;20480;-84
2021/06/10 04:14:19;;;;;;;7.57;6.43;;;19.50;99.90;;;;;;5027714;28;20549;-84
2021/06/10 04:16:45;;;;;;;6.90;6.20;;;19.50;99.90;;;;;;5024594;28;20492;-85
2021/06/10 04:19:11;;;;;;;5.00;4.60;;;19.50;99.90;;;;;;5020780;28;20550;-84
2021/06/10 04:21:39;;;;;;;6.10;5.50;;;19.60;99.90;;;;;;5030712;28;20457;-84
2021/06/10 04:24:05;;;;;;;6.07;5.60;;;19.70;99.90;;;;;;5018991;28;20477;-85
2021/06/10 04:26:32;;;;;;;6.80;6.20;;;19.70;99.90;;;;;;5025758;28;20453;-85
2021/06/10 04:28:58;;;;;;;6.10;5.57;;;19.80;99.90;;;;;;5025926;28;21002;-85
2021/06/10 04:31:24;;;;;;;8.87;6.23;;;19.80;99.90;;;;;;5032488;28;20592;-85
2021/06/10 04:33:50;;;;;;;7.33;5.10;;;19.90;99.90;;;;;;5031526;28;20450;-85
2021/06/10 04:36:17;;;;;;;7.40;5.60;;;20.00;99.90;;;;;;5020260;28;20537;-85
2021/06/10 04:38:44;;;;;;;5.87;5.47;;;20.00;99.90;;;;;;5023873;28;20992;-85
2021/06/10 04:41:11;;;;;;;5.83;5.23;;;20.20;99.90;;;;;;5027553;28;20595;-84
2021/06/10 04:43:37;;;;;;;5.80;5.30;;;20.20;99.90;;;;;;5017568;28;20454;-84
2021/06/10 04:46:03;;;;;;;5.90;5.40;;;20.40;99.90;;;;;;5029621;28;20446;-84
2021/06/10 04:48:29;;;;;;;9.30;5.47;;;20.40;99.90;;;;;;5021895;28;20501;-84
2021/06/10 04:50:55;;;;;;;6.10;5.60;;;20.50;99.90;;;;;;5022084;28;20537;-84
2021/06/10 04:53:22;;;;;;;6.87;5.70;;;20.70;99.90;;;;;;5029045;28;20528;-84
2021/06/10 04:55:51;;;;;;;6.30;5.03;;;20.80;99.90;;;;;;5017002;28;20438;-85
2021/06/10 04:58:17;;;;;;;5.50;5.10;;;21.00;99.90;;;;;;5027456;28;20504;-85
2021/06/10 05:00:43;;;;;;;5.70;5.10;;;21.00;99.90;;;;;;5020929;28;20480;-82
2021/06/10 05:03:09;;;;;;;6.07;5.60;;;21.00;99.90;;;;;;5019452;28;20473;-74
2021/06/10 05:05:38;;;;;;;6.17;5.77;;;21.00;99.90;;;;;;5013472;28;20477;-74
2021/06/10 05:08:05;;;;;;;5.10;4.80;;;21.00;99.90;;;;;;5012922;28;20485;-74
2021/06/10 05:10:31;;;;;;;5.73;5.23;;;21.00;99.90;;;;;;5013076;28;20538;-74
2021/06/10 05:12:58;;;;;;;5.70;5.20;;;20.90;99.90;;;;;;5012505;28;20486;-74
2021/06/10 05:15:24;;;;;;;10.87;5.20;;;20.90;99.90;;;;;;5012836;28;20544;-74
2021/06/10 05:17:50;;;;;;;5.60;4.87;;;20.90;99.90;;;;;;5012884;28;20457;-73
2021/06/10 05:20:17;;;;;;;5.10;4.60;;;21.00;99.90;;;;;;5010762;28;20482;-74
2021/06/10 05:22:43;;;;;;;5.37;4.97;;;21.10;99.90;;;;;;5022967;28;20531;-74
2021/06/10 05:25:10;;;;;;;4.90;4.50;;;21.20;99.90;;;;;;5019849;28;20485;-74
2021/06/10 05:27:36;;;;;;;4.73;4.43;;;21.30;99.90;;;;;;5029526;28;20511;-73
2021/06/10 05:30:05;;;;;;;4.70;4.30;;;21.40;99.90;;;;;;5017610;28;20484;-74
2021/06/10 05:32:31;;;;;;;4.90;4.60;;;21.50;99.90;;;;;;5027234;28;20540;-73
2021/06/10 05:34:57;;;;;;;5.10;4.70;;;21.60;99.90;;;;;;5030073;28;20536;-74
2021/06/10 05:37:24;;;;;;;3.93;3.73;;;21.70;99.90;;;;;;5016607;28;20877;-74
2021/06/10 05:39:50;;;;;;;4.03;3.83;;;21.90;99.90;;;;;;5025506;28;21027;-74
2021/06/10 05:42:16;;;;;;;4.13;3.83;;;22.10;99.90;;;;;;5014264;28;20805;-74
2021/06/10 05:44:42;;;;;;;4.33;4.03;;;22.40;99.90;;;;;;5011130;28;20501;-74
2021/06/10 05:47:10;;;;;;;4.63;4.23;;;22.70;99.90;;;;;;5012580;28;20537;-74
2021/06/10 05:49:36;;;;;;;4.30;4.03;;;23.00;99.90;;;;;;5011688;28;20492;-74
2021/06/10 05:52:03;;;;;;;4.17;3.87;;;23.30;99.90;;;;;;5010830;28;20508;-74
2021/06/10 05:54:29;;;;;;;4.13;3.43;;;23.50;99.90;;;;;;5014148;28;20450;-74
2021/06/10 05:56:55;;;;;;;4.17;3.50;;;23.70;99.90;;;;;;5010902;28;20541;-74
2021/06/10 05:59:21;;;;;;;3.27;3.07;;;24.00;99.90;;;;;;5012395;28;20483;-74
2021/06/10 06:01:47;;;;;;;3.30;3.10;;;24.50;99.90;;;;;;5010695;28;20442;-74
2021/06/10 06:04:14;;;;;;;3.33;3.13;;;24.80;99.90;;;;;;5026282;28;20514;-74
2021/06/10 06:06:40;;;;;;;4.70;3.67;;;25.00;99.90;;;;;;5030321;28;20559;-74
2021/06/10 06:09:08;;;;;;;3.67;3.47;;;25.00;99.90;;;;;;5032201;28;20527;-75
2021/06/10 06:11:34;;;;;;;3.60;3.40;;;25.10;99.90;;;;;;5026819;28;20500;-74
2021/06/10 06:14:07;;;;;;;3.83;3.23;;;24.80;99.90;;;;;;5032323;28;20489;-74
2021/06/10 06:16:34;;;;;;;4.07;3.77;;;24.60;99.90;;;;;;5030752;28;20566;-75
2021/06/10 06:19:01;;;;;;;3.33;3.13;;;24.40;99.90;;;;;;5038355;28;20847;-74
2021/06/10 06:21:29;;;;;;;3.93;3.60;;;24.30;99.90;;;;;;5016960;28;20456;-75
2021/06/10 06:23:57;;;;;;;4.27;3.80;;;24.30;99.90;;;;;;5024655;28;20486;-79
2021/06/10 06:26:23;;;;;;;3.70;3.50;;;24.70;99.90;;;;;;5022721;28;20887;-74
2021/06/10 06:28:49;;;;;;;4.53;3.60;;;25.30;99.90;;;;;;5031949;28;20480;-74
2021/06/10 06:31:15;;;;;;;4.43;4.03;;;25.80;99.90;;;;;;5019260;28;20477;-74
2021/06/10 06:33:41;;;;;;;4.03;3.73;;;26.00;99.90;;;;;;5035546;28;20492;-74
2021/06/10 06:36:07;;;;;;;3.87;3.57;;;26.10;99.90;;;;;;5036377;28;20487;-75
2021/06/10 06:38:35;;;;;;;3.70;3.40;;;26.60;99.90;;;;;;5023285;28;20538;-74
2021/06/10 06:41:01;;;;;;;3.20;2.97;;;27.00;99.90;;;;;;5032812;28;21018;-74
2021/06/10 06:43:30;;;;;;;3.20;2.90;;;27.10;99.90;;;;;;5020750;28;20914;-74
2021/06/10 06:45:56;;;;;;;3.47;3.27;;;27.50;99.90;;;;;;5028115;28;20453;-74
2021/06/10 06:48:22;;;;;;;3.00;2.80;;;28.00;99.90;;;;;;5027648;28;20533;-74
2021/06/10 06:50:48;;;;;;;5.27;3.60;;;27.80;99.90;;;;;;5021034;28;20447;-75
2021/06/10 06:53:14;;;;;;;4.30;3.43;;;27.60;99.90;;;;;;5032628;28;20550;-74
2021/06/10 06:55:43;;;;;;;4.17;3.70;;;27.60;99.90;;;;;;5022244;28;20935;-74
2021/06/10 06:58:10;;;;;;;4.93;4.03;;;27.60;99.90;;;;;;5025928;28;20553;-74
2021/06/10 07:00:36;;;;;;;3.80;2.80;;;27.80;99.90;;;;;;5029555;28;20453;-75
2021/06/10 07:03:02;;;;;;;3.83;3.43;;;28.00;99.90;;;;;;5023381;28;20565;-74
2021/06/10 07:05:28;;;;;;;3.13;2.93;;;28.30;99.90;;;;;;5035974;28;20530;-74
2021/06/10 07:07:54;;;;;;;6.03;4.17;;;28.60;99.90;;;;;;5035436;28;20547;-74
2021/06/10 07:10:20;;;;;;;3.33;3.13;;;28.80;99.90;;;;;;5035673;28;20477;-74
2021/06/10 07:12:48;;;;;;;5.63;3.37;;;28.90;99.90;;;;;;5035366;28;20567;-75
2021/06/10 07:15:14;;;;;;;4.03;3.10;;;28.90;99.20;;;;;;5035391;28;20445;-75
2021/06/10 07:17:41;;;;;;;6.27;3.40;;;28.80;99.20;;;;;;5035622;28;20524;-74
2021/06/10 07:20:07;;;;;;;4.80;3.40;;;28.60;99.10;;;;;;5035617;28;20535;-75
2021/06/10 07:22:38;;;;;;;7.93;3.30;;;28.30;99.60;;;;;;5035324;28;21016;-75
2021/06/10 07:25:06;;;;;;;6.23;3.50;;;28.40;99.70;;;;;;5035376;28;20540;-75
2021/06/10 07:27:32;;;;;;;3.30;3.10;;;28.60;99.90;;;;;;5035223;28;20485;-75
2021/06/10 07:30:00;;;;;;;6.17;3.70;;;28.80;99.40;;;;;;5035127;28;21082;-74
2021/06/10 07:32:26;;;;;;;5.20;3.50;;;29.20;99.40;;;;;;5035216;28;20453;-75
2021/06/10 07:34:52;;;;;;;3.33;3.03;;;29.40;97.80;;;;;;5042666;28;20445;-74
2021/06/10 07:37:18;;;;;;;5.87;3.50;;;29.50;98.00;;;;;;5035071;28;20484;-75
2021/06/10 07:39:44;;;;;;;4.17;3.30;;;29.70;98.50;;;;;;5035174;28;20484;-75
2021/06/10 07:42:10;;;;;;;2.90;2.70;;;29.90;98.40;;;;;;5035096;28;20880;-75
2021/06/10 07:44:37;;;;;;;4.10;3.13;;;30.00;98.00;;;;;;5035060;28;20481;-74
2021/06/10 07:47:05;;;;;;;4.53;2.73;;;30.00;96.20;;;;;;5035007;28;20481;-75
2021/06/10 07:49:32;;;;;;;5.50;3.20;;;30.00;94.30;;;;;;5034877;28;20560;-74
2021/06/10 07:51:58;;;;;;;3.33;3.03;;;29.70;94.00;;;;;;5035023;28;20453;-75
2021/06/10 07:54:24;;;;;;;4.60;3.27;;;29.50;94.00;;;;;;5034847;28;20993;-74
2021/06/10 07:56:50;;;;;;;3.80;3.40;;;29.40;94.20;;;;;;5034934;28;20603;-75
2021/06/10 07:59:23;;;;;;;6.20;3.27;;;29.40;94.30;;;;;;5034602;28;20495;-74
2021/06/10 08:01:50;;;;;;;7.83;4.20;;;29.50;94.30;;;;;;5034724;28;20440;-74
2021/06/10 08:04:17;;;;;;;5.37;3.77;;;29.60;93.60;;;;;;5023817;28;20477;-74
2021/06/10 08:06:43;;;;;;;5.23;3.93;;;29.50;93.30;;;;;;5029421;28;20533;-74
2021/06/10 08:09:09;;;;;;;5.27;3.97;;;29.40;93.60;;;;;;5017960;28;20517;-74
2021/06/10 08:11:35;;;;;;;5.00;4.50;;;29.30;93.50;;;;;;5033008;28;20956;-75
2021/06/10 08:14:01;;;;;;;4.63;4.33;;;29.30;93.30;;;;;;5025551;28;20940;-75
2021/06/10 08:16:27;;;;;;;4.70;4.30;;;28.90;93.20;;;;;;5027186;28;20528;-75
2021/06/10 08:18:53;;;;;;;5.30;4.80;;;28.60;93.40;;;;;;5018370;28;20478;-74
2021/06/10 08:21:21;;;;;;;4.23;3.93;;;28.60;94.60;;;;;;5030933;28;20477;-74
2021/06/10 08:23:47;;;;;;;6.07;5.60;;;28.60;94.30;;;;;;5021331;28;20484;-74
2021/06/10 08:26:13;;;;;;;5.07;4.33;;;28.60;93.80;;;;;;5023795;28;20541;-75
2021/06/10 08:28:39;;;;;;;5.27;4.87;;;28.60;94.30;;;;;;5014443;28;20531;-74
2021/06/10 08:31:05;;;;;;;5.10;4.70;;;28.70;94.40;;;;;;5030738;28;20533;-74
2021/06/10 08:33:33;;;;;;;7.10;6.50;;;28.50;94.40;;;;;;5018819;28;20992;-74
2021/06/10 08:35:59;;;;;;;6.70;6.10;;;28.40;94.50;;;;;;5025535;28;20446;-74
2021/06/10 08:38:27;;;;;;;6.00;5.50;;;28.00;94.90;;;;;;5028497;28;20880;-74
2021/06/10 08:40:53;;;;;;;7.20;4.60;;;27.50;95.40;;;;;;5018055;28;20446;-74
2021/06/10 08:43:19;;;;;;;6.30;5.73;;;27.40;95.90;;;;;;5030287;28;20461;-74
2021/06/10 08:45:47;;;;;;;6.87;6.40;;;27.50;96.30;;;;;;5020791;28;20555;-74
2021/06/10 08:48:14;;;;;;;7.23;6.63;;;27.50;95.80;;;;;;5022246;28;20545;-74
2021/06/10 08:50:40;;;;;;;6.73;6.23;;;27.40;95.40;;;;;;5028092;28;20941;-74
2021/06/10 08:53:07;;;;;;;7.37;6.87;;;27.30;95.90;;;;;;5016986;28;20446;-75
2021/06/10 08:55:35;;;;;;;5.87;5.47;;;27.20;95.40;;;;;;5028907;28;20532;-75
2021/06/10 08:58:01;;;;;;;5.60;5.20;;;27.20;96.30;;;;;;5022608;28;20540;-74
2021/06/10 09:00:29;;;;;;;5.20;4.73;;;27.20;96.10;;;;;;5021308;28;20551;-74
2021/06/10 09:02:57;;;;;;;8.17;7.37;;;27.30;96.50;;;;;;5029632;28;20469;-74
2021/06/10 09:05:23;;;;;;;6.70;6.20;;;27.10;95.30;;;;;;5013791;28;20446;-74
2021/06/10 09:07:55;;;;;;;5.50;5.10;;;26.90;95.70;;;;;;5020543;28;20845;-74
2021/06/10 09:10:24;;;;;;;4.73;4.43;;;26.90;96.50;;;;;;5021876;28;20565;-75
2021/06/10 09:12:53;;;;;;;6.23;5.20;;;27.10;96.40;;;;;;4998275;28;20483;-74
2021/06/10 09:15:21;;;;;;;9.00;6.30;;;27.30;96.50;;;;;;5029296;28;20875;-74
2021/06/10 09:17:48;;;;;;;5.60;5.20;;;27.40;95.30;;;;;;5020241;28;20503;-74
2021/06/10 09:20:32;;;;;;;4.63;4.30;;;27.30;95.50;;;;;;5022492;28;20824;-74
2021/06/10 09:23:17;;;;;;;5.87;5.47;;;27.40;95.80;;;;;;5029592;28;20481;-74
2021/06/10 09:25:45;;;;;;;5.73;5.33;;;27.20;95.40;;;;;;5019808;28;20445;-74
2021/06/10 09:28:13;;;;;;;5.40;5.00;;;26.90;95.70;;;;;;5021256;28;20545;-74
2021/06/10 09:30:42;;;;;;;6.80;6.30;;;26.80;95.70;;;;;;5027064;28;20540;-75
2021/06/10 09:33:12;;;;;;;6.37;5.87;;;26.90;95.40;;;;;;5016547;28;20438;-74
2021/06/10 09:35:41;;;;;;;6.93;5.47;;;26.80;95.60;;;;;;5027878;28;20458;-74
2021/06/10 09:38:09;;;;;;;6.20;5.70;;;26.80;95.80;;;;;;5013140;28;20520;-74
2021/06/10 09:40:35;;;;;;;4.73;4.43;;;26.90;95.70;;;;;;5017016;28;20476;-74
2021/06/10 09:43:02;;;;;;;4.93;4.60;;;27.00;96.00;;;;;;5025601;28;20450;-74
2021/06/10 09:45:31;;;;;;;4.50;4.20;;;27.20;95.80;;;;;;5023970;28;20536;-75
2021/06/10 09:48:00;;;;;;;5.87;5.10;;;27.20;95.20;;;;;;5017940;28;20804;-75
2021/06/10 09:50:28;;;;;;;5.87;4.80;;;27.30;95.00;;;;;;5029221;28;20560;-74
2021/06/10 09:52:56;;;;;;;7.10;4.50;;;27.40;95.00;;;;;;5019270;28;20445;-74
2021/06/10 09:55:30;;;;;;;4.97;4.47;;;27.40;95.40;;;;;;5029894;28;20851;-75
2021/06/10 09:57:57;;;;;;;6.80;4.40;;;27.10;94.90;;;;;;5017490;28;20441;-74
2021/06/10 10:00:26;;;;;;;5.80;4.90;;;27.10;94.50;;;;;;5028821;28;20456;-75
2021/06/10 10:02:54;;;;;;;5.20;4.50;;;27.00;94.00;;;;;;5019040;28;20466;-74
2021/06/10 10:05:22;;;;;;;5.47;5.07;;;27.10;93.70;;;;;;5022293;28;20485;-75
2021/06/10 10:07:49;;;;;;;4.20;3.90;;;27.20;93.60;;;;;;5026588;28;20527;-74
2021/06/10 10:10:15;;;;;;;4.27;3.97;;;27.30;94.20;;;;;;5015599;28;20569;-75
2021/06/10 10:12:43;;;;;;;4.20;3.90;;;27.40;93.70;;;;;;5021422;28;20804;-74
2021/06/10 10:15:09;;;;;;;7.87;4.20;;;27.30;92.90;;;;;;5024014;28;20450;-74
2021/06/10 10:17:36;;;;;;;5.13;4.80;;;27.30;92.00;;;;;;5024699;28;20456;-74
2021/06/10 10:20:05;;;;;;;4.57;4.20;;;27.30;92.20;;;;;;5016567;28;20461;-74
2021/06/10 10:22:31;;;;;;;4.10;3.80;;;27.50;92.50;;;;;;5028726;28;20450;-75
2021/06/10 10:24:59;;;;;;;6.33;3.63;;;27.60;92.40;;;;;;5019179;28;20548;-75
2021/06/10 10:27:25;;;;;;;5.17;4.77;;;27.70;91.90;;;;;;5021634;28;20446;-75
2021/06/10 10:29:52;;;;;;;4.53;4.23;;;27.90;91.90;;;;;;5012367;28;20513;-74
2021/06/10 10:32:22;;;;;;;4.27;3.87;;;27.70;89.70;;;;;;5013940;28;20528;-74
2021/06/10 10:34:48;;;;;;;4.20;3.80;;;27.50;90.30;;;;;;5026504;28;20478;-74
2021/06/10 10:37:21;;;;;;;5.30;3.70;;;27.20;90.20;;;;;;5021501;28;20481;-74
2021/06/10 10:39:49;;;;;;;4.17;3.90;;;26.90;90.50;;;;;;5016626;28;20453;-75
2021/06/10 10:42:30;;;;;;;4.00;3.70;;;26.70;90.50;;;;;;5010572;28;20508;-74
2021/06/10 10:45:21;;;;;;;3.80;3.60;;;26.60;91.40;;;;;;5014772;28;20965;-74
2021/06/10 10:47:57;;;;;;;4.23;3.60;;;26.60;91.10;;;;;;5017414;28;20450;-75
2021/06/10 10:50:35;;;;;;;5.43;5.13;;;26.50;91.40;;;;;;5028442;28;20852;-75
2021/06/10 10:53:04;;;;;;;5.80;4.20;;;26.50;91.60;;;;;;5019886;28;20812;-75
2021/06/10 10:55:31;;;;;;;3.53;3.23;;;26.50;90.70;;;;;;5020623;28;20485;-74
2021/06/10 10:58:07;;;;;;;5.50;4.00;;;26.50;90.10;;;;;;5027298;28;20449;-75
2021/06/10 11:00:54;;;;;;;3.60;3.37;;;26.40;90.30;;;;;;4996208;28;21075;-75
2021/06/10 11:03:28;;;;;;;3.50;3.30;;;26.60;90.40;;;;;;5021936;28;20477;-74
2021/06/10 11:05:55;;;;;;;3.77;3.53;;;26.60;90.30;;;;;;5017303;28;20450;-74
2021/06/10 11:08:23;;;;;;;4.00;3.70;;;26.70;90.50;;;;;;5028282;28;20516;-75
2021/06/10 11:11:02;;;;;;;3.03;2.83;;;26.60;90.80;;;;;;5016094;28;20445;-75
2021/06/10 11:13:46;;;;;;;3.60;3.40;;;26.70;91.10;;;;;;5013128;28;20446;-89
2021/06/10 11:16:13;;;;;;;3.70;3.40;;;26.90;90.90;;;;;;5016771;28;20499;-87
2021/06/10 11:18:40;;;;;;;4.63;4.30;;;27.10;91.30;;;;;;5017190;28;20450;-86
2021/06/10 11:21:07;;;;;;;4.17;3.20;;;27.20;90.80;;;;;;5013019;28;20449;-87
2021/06/10 11:23:34;;;;;;;3.90;3.60;;;27.40;91.30;;;;;;5016672;28;20446;-85
2021/06/10 11:26:03;;;;;;;3.73;3.53;;;27.60;91.20;;;;;;5016127;28;21052;-86
2021/06/10 11:28:35;;;;;;;3.90;3.60;;;27.70;91.00;;;;;;5017666;28;20502;-87
2021/06/10 11:31:14;;;;;;;3.60;3.50;;;27.60;90.10;;;;;;5016278;28;20482;-87
2021/06/10 11:33:40;;;;;;;5.80;3.40;;;27.50;87.80;;;;;;5016250;28;21013;-88
2021/06/10 11:36:09;;;;;;;3.77;3.57;;;27.40;89.00;;;;;;5014028;28;20987;-88
2021/06/10 11:38:40;;;;;;;6.30;2.77;;;27.40;88.90;;;;;;5019189;28;20441;-88
2021/06/10 11:41:09;;;;;;;2.77;2.57;;;27.50;87.20;;;;;;5034793;28;20481;-88
2021/06/10 11:43:37;;;;;;;2.50;2.40;;;27.40;86.80;;;;;;5023027;28;20480;-88
2021/06/10 11:46:06;;;;;;;3.50;2.80;;;27.50;86.70;;;;;;5031048;28;20921;-89
2021/06/10 11:48:36;;;;;;;4.43;3.20;;;27.60;88.40;;;;;;4999260;28;20523;-89
2021/06/10 11:51:03;;;;;;;4.57;2.83;;;27.70;88.20;;;;;;5022576;28;21003;-89
2021/06/10 11:53:30;;;;;;;3.90;3.07;;;27.50;87.90;;;;;;5023674;28;20456;-89
2021/06/10 11:55:58;;;;;;;4.27;2.90;;;27.50;87.70;;;;;;5029851;28;20477;-88
2021/06/10 11:58:26;;;;;;;3.90;3.53;;;27.40;88.10;;;;;;5018149;28;20450;-88
2021/06/10 12:00:53;;;;;;;3.13;2.87;;;27.40;86.30;;;;;;5028348;28;20479;-88
2021/06/10 12:03:20;;;;;;;5.37;3.20;;;27.20;86.60;;;;;;5024693;28;20479;-88
2021/06/10 12:05:49;;;;;;;4.03;3.13;;;27.20;85.80;;;;;;5021160;28;20442;-89
2021/06/10 12:08:17;;;;;;;3.23;2.77;;;27.10;86.20;;;;;;5031142;28;20500;-89
2021/06/10 12:10:49;;;;;;;3.43;3.23;;;27.10;85.30;;;;;;5019731;28;20477;-89
2021/06/10 12:13:23;;;;;;;3.40;3.20;;;27.00;85.10;;;;;;5004279;28;20537;-88
2021/06/10 12:15:52;;;;;;;2.97;2.87;;;27.00;86.00;;;;;;5028720;28;20468;-89
2021/06/10 12:18:20;;;;;;;3.20;3.00;;;27.20;84.80;;;;;;5018071;28;20964;-89
2021/06/10 12:20:48;;;;;;;3.90;3.10;;;27.40;86.10;;;;;;5028984;28;20445;-88
2021/06/10 12:23:17;;;;;;;2.97;2.77;;;27.70;85.80;;;;;;5023645;28;20446;-89
2021/06/10 12:25:52;;;;;;;3.30;3.00;;;27.90;86.70;;;;;;5021027;28;20458;-86
2021/06/10 12:28:33;;;;;;;3.00;2.90;;;28.10;86.80;;;;;;5019996;28;20537;-87
2021/06/10 12:31:16;;;;;;;2.80;2.47;;;28.20;84.50;;;;;;5021482;28;20800;-87
2021/06/10 12:33:44;;;;;;;2.87;2.73;;;28.30;80.80;;;;;;5018117;28;20450;-87
2021/06/10 12:36:15;;;;;;;5.87;2.77;;;28.30;80.70;;;;;;5030472;28;20871;-87
2021/06/10 12:38:42;;;;;;;3.10;2.80;;;28.50;81.70;;;;;;5019170;28;20936;-86
2021/06/10 12:41:17;;;;;;;2.90;2.70;;;28.60;82.10;;;;;;5028451;28;20457;-87
2021/06/10 12:43:45;;;;;;;3.00;2.80;;;28.70;82.20;;;;;;5034022;28;20437;-88
2021/06/10 12:46:12;;;;;;;2.83;2.73;;;28.70;82.90;;;;;;5017245;28;21011;-89
2021/06/10 12:48:38;;;;;;;2.93;2.73;;;28.60;81.50;;;;;;5029402;28;21011;-90